Have a Safe July 4th! 

Flight Track Log - Related Links

Times and Time Zones

All times are in EDT time to prevent confusion due to time zone crossing. See the FLG3580 flight status page for this flight to view local times or setup timezone preferences in your user account.

Time Position Orientation Groundspeed Altitude Reporting Facility
EDT Latitude Longitude Course Direction KTS MPH feet Rate Location/Type
Fri 03:38:58 PM 46.7725 -92.1322 221° Southwest 245 282 4,900  Level Minneapolis Center
Fri 03:40:00 PM 46.6411 -92.4621 223° Southwest  Level FlightAware Approximate
Fri 03:40:00 PM 46.7189 -92.2131 226° Southwest 268 308 7,600  Level Minneapolis Center
Fri 03:41:00 PM 46.5910 -92.5288 222° Southwest  Level FlightAware Approximate
Fri 03:41:02 PM 46.6536 -92.3144 227° Southwest 281 323 10,500  Level Minneapolis Center
Fri 03:42:00 PM 46.5413 -92.5958 225° Southwest  Level FlightAware Approximate
Fri 03:42:04 PM 46.5972 -92.4031 227° Southwest 292 336 13,000  Level Minneapolis Center
Fri 03:43:00 PM 46.4810 -92.6820 225° Southwest  Level FlightAware Approximate
Fri 03:43:06 PM 46.5408 -92.4878 226° Southwest 293 337 15,000  Level Minneapolis Center
Fri 03:44:00 PM 46.4199 -92.7668 221° Southwest  Level FlightAware Approximate
Fri 03:44:08 PM 46.4703 -92.5633 216° Southwest 308 354 16,300  Level Minneapolis Center
Fri 03:45:10 PM 46.3958 -92.6464 218° Southwest 327 376 17,500 1,113 Climbing Minneapolis Center
Fri 03:46:12 PM 46.3167 -92.7319 217° Southwest 346 398 18,600 1,210 Climbing Minneapolis Center
Fri 03:47:14 PM 46.2197 -92.8400 218° Southwest 361 415 20,000 672 Climbing Minneapolis Center
Fri 03:48:17 PM 46.1461 -92.9203 217° Southwest 369 425 20,000 -336 Level Minneapolis Center
Fri 03:49:19 PM 46.0406 -93.0347 217° Southwest 390 449 19,300 -823 Descending Minneapolis Center
Fri 03:50:21 PM 45.9539 -93.1306 218° Southwest 394 453 18,300 -968 Descending Minneapolis Center
Fri 03:51:23 PM 45.8661 -93.2278 218° Southwest 398 458 17,300 -1,016 Descending Minneapolis Center
Fri 03:52:25 PM 45.7792 -93.3219 217° Southwest 395 455 16,200 -726 Descending Minneapolis Center
Fri 03:53:27 PM 45.6969 -93.4108 217° Southwest 376 433 15,800 -1,645 Descending Minneapolis Center
Fri 03:54:29 PM 45.6011 -93.5133 217° Southwest 361 415 12,800 -2,323 Descending Minneapolis Center
Fri 03:55:31 PM 45.5136 -93.5681 204° Southwest 363 418 11,000 -1,210 Descending Minneapolis Center
Fri 03:56:33 PM 45.4281 -93.5236 160° South 324 373 10,300 -1,056 Descending Minneapolis Center
Fri 03:57:36 PM 45.3467 -93.5239 180° South 293 337 8,800 -1,536 Descending Minneapolis Center
Fri 03:58:38 PM 45.2700 -93.5239 180° South 279 321 7,100 -1,161 Descending Minneapolis Center
Fri 03:59:40 PM 45.1861 -93.5256 181° South 250 288 6,400 -844 Descending Minneapolis Center
Fri 04:00:46 PM 45.1228 -93.5267 181° South 231 266 5,300 -984 Descending Minneapolis Center
Fri 04:01:48 PM 45.0739 -93.4864 150° Southeast 224 258 4,300 -629 Descending Minneapolis Center
Fri 04:02:50 PM 45.0272 -93.4364 143° Southeast 213 245 4,000 -339 Descending Minneapolis Center
Fri 04:03:52 PM 44.9756 -93.3817 143° Southeast 195 224 3,600 -387 Descending Minneapolis Center

Login

Don't have an account? Register now (free) for customized features, flight alerts, and more!